Time;durP1;ratioP1;P1;durP2;ratioP2;P2;SDS_P1;SDS_P2;PMS_P1;PMS_P2;Temp;Humidity;BMP_temperature;BMP_pressure;BME280_temperature;BME280_humidity;BME280_pressure;Samples;Min_cycle;Max_cycle;Signal;HPM_P1;HPM_P2
2023/04/03 00:00:04;;;;;;;2.72;1.30;;;1.80;99.90;;;;;;5077219;28;20044;-45
2023/04/03 00:02:30;;;;;;;2.65;1.42;;;1.80;99.90;;;;;;5028272;28;20044;-45
2023/04/03 00:04:56;;;;;;;4.40;1.60;;;1.70;99.90;;;;;;5076121;28;20039;-40
2023/04/03 00:07:21;;;;;;;2.67;1.42;;;1.70;99.90;;;;;;5057090;28;20048;-44
2023/04/03 00:09:47;;;;;;;4.35;1.38;;;1.70;99.90;;;;;;5076281;28;20068;-40
2023/04/03 00:12:13;;;;;;;3.45;1.40;;;1.70;99.90;;;;;;5057120;28;20380;-37
2023/04/03 00:14:39;;;;;;;3.50;1.50;;;1.70;99.90;;;;;;5076692;28;20090;-44
2023/04/03 00:17:04;;;;;;;3.90;1.90;;;1.70;99.90;;;;;;5075671;28;20048;-45
2023/04/03 00:19:30;;;;;;;3.85;1.45;;;1.70;99.90;;;;;;5063003;28;20036;-47
2023/04/03 00:21:56;;;;;;;2.92;1.45;;;1.70;99.90;;;;;;5075521;28;20056;-40
2023/04/03 00:24:21;;;;;;;2.30;1.42;;;1.60;99.90;;;;;;5076418;28;20410;-39
2023/04/03 00:26:47;;;;;;;4.32;1.40;;;1.60;99.90;;;;;;5076081;28;20484;-46
2023/04/03 00:29:13;;;;;;;2.95;1.33;;;1.50;99.90;;;;;;5076304;28;20054;-38
2023/04/03 00:31:39;;;;;;;3.28;1.23;;;1.50;99.90;;;;;;5074370;28;20069;-42
2023/04/03 00:34:05;;;;;;;2.20;1.55;;;1.40;99.90;;;;;;5069133;28;20052;-41
2023/04/03 00:36:31;;;;;;;5.88;1.70;;;1.40;99.90;;;;;;5074959;28;20117;-42
2023/04/03 00:38:56;;;;;;;4.00;1.33;;;1.40;99.90;;;;;;5056770;28;20140;-42
2023/04/03 00:41:22;;;;;;;4.45;1.40;;;1.40;99.90;;;;;;5055953;28;20051;-42
2023/04/03 00:43:48;;;;;;;2.08;1.30;;;1.40;99.90;;;;;;5055959;28;20380;-46
2023/04/03 00:46:13;;;;;;;5.18;1.30;;;1.40;99.90;;;;;;5037202;28;20498;-35
2023/04/03 00:48:41;;;;;;;3.13;1.35;;;1.40;99.90;;;;;;5055693;28;20319;-38
2023/04/03 00:51:35;;;;;;;2.42;1.52;;;1.40;99.90;;;;;;5036930;28;20175;-39
2023/04/03 00:54:04;;;;;;;5.53;2.08;;;1.40;99.90;;;;;;5065265;28;20102;-42
2023/04/03 00:56:31;;;;;;;2.17;1.00;;;1.30;99.90;;;;;;5074918;28;20549;-47
2023/04/03 00:59:11;;;;;;;2.95;1.27;;;1.30;99.90;;;;;;5074975;28;20048;-36
2023/04/03 01:01:37;;;;;;;4.78;1.58;;;1.30;99.90;;;;;;5074839;28;20557;-39
2023/04/03 01:04:05;;;;;;;3.40;1.10;;;1.30;99.90;;;;;;5075035;28;20058;-36
2023/04/03 01:06:37;;;;;;;3.95;1.58;;;1.20;99.90;;;;;;5074533;28;20048;-42
2023/04/03 01:09:04;;;;;;;4.53;1.30;;;1.20;99.90;;;;;;5075124;28;20056;-43
2023/04/03 01:11:30;;;;;;;3.28;1.30;;;1.10;99.90;;;;;;5075200;28;20048;-41
2023/04/03 01:13:56;;;;;;;2.92;1.45;;;1.10;99.90;;;;;;5075773;28;20097;-42
2023/04/03 01:16:22;;;;;;;2.53;1.20;;;1.10;99.90;;;;;;5074884;28;20051;-36
2023/04/03 01:18:48;;;;;;;4.07;1.42;;;1.10;99.90;;;;;;5075387;28;20063;-45
2023/04/03 01:21:35;;;;;;;3.13;1.20;;;1.00;99.90;;;;;;5074585;28;20052;-36
2023/04/03 01:24:09;;;;;;;2.25;1.50;;;1.00;99.90;;;;;;5075096;28;20056;-39
2023/04/03 01:26:35;;;;;;;4.95;1.45;;;1.00;99.90;;;;;;5055658;28;20078;-43
2023/04/03 01:29:01;;;;;;;4.07;1.08;;;0.90;99.90;;;;;;5074745;28;20052;-41
2023/04/03 01:31:34;;;;;;;4.25;1.08;;;0.90;99.90;;;;;;5073384;28;20364;-44
2023/04/03 01:34:00;;;;;;;1.73;1.00;;;0.90;99.90;;;;;;5028247;28;20067;-42
2023/04/03 01:36:31;;;;;;;3.47;1.23;;;0.90;99.90;;;;;;5053392;28;20048;-38
2023/04/03 01:38:59;;;;;;;2.63;1.20;;;0.80;99.90;;;;;;5046155;28;20056;-44
2023/04/03 01:41:25;;;;;;;3.08;1.35;;;0.80;99.90;;;;;;5053747;28;20052;-43
2023/04/03 01:43:51;;;;;;;3.10;1.10;;;0.80;99.90;;;;;;5066573;28;20047;-49
2023/04/03 01:46:18;;;;;;;2.97;1.15;;;0.70;99.90;;;;;;5074389;28;20880;-40
2023/04/03 01:48:44;;;;;;;1.90;0.90;;;0.70;99.90;;;;;;5050594;28;20525;-42
2023/04/03 01:51:09;;;;;;;4.72;1.25;;;0.70;99.90;;;;;;5074889;28;20127;-36
2023/04/03 01:53:35;;;;;;;3.63;1.58;;;0.70;99.90;;;;;;5057097;28;20596;-42
2023/04/03 01:56:01;;;;;;;2.58;1.25;;;0.60;99.90;;;;;;5056698;28;20494;-41
2023/04/03 01:58:26;;;;;;;2.90;1.40;;;0.60;99.90;;;;;;5071267;28;20044;-45
2023/04/03 02:00:52;;;;;;;5.07;1.05;;;0.50;99.90;;;;;;5066768;28;20056;-39
2023/04/03 02:03:18;;;;;;;2.80;1.27;;;0.60;99.90;;;;;;5040480;28;20044;-47
2023/04/03 02:05:44;;;;;;;3.05;1.20;;;0.50;99.90;;;;;;5055781;28;20048;-42
2023/04/03 02:08:10;;;;;;;6.25;1.40;;;0.50;99.90;;;;;;5051024;28;20056;-47
2023/04/03 02:10:36;;;;;;;4.40;1.30;;;0.40;99.90;;;;;;5078644;28;20051;-42
2023/04/03 02:13:01;;;;;;;2.83;1.38;;;0.40;99.90;;;;;;5076955;28;20054;-38
2023/04/03 02:15:27;;;;;;;3.63;1.20;;;0.40;99.90;;;;;;5061531;28;20052;-40
2023/04/03 02:17:53;;;;;;;3.63;1.35;;;0.40;99.90;;;;;;5057188;28;20059;-39
2023/04/03 02:20:18;;;;;;;4.22;1.45;;;0.40;99.90;;;;;;5057813;28;20514;-45
2023/04/03 02:22:44;;;;;;;4.05;1.38;;;0.40;99.90;;;;;;5057980;28;20476;-44
2023/04/03 02:25:10;;;;;;;4.00;1.30;;;0.30;99.90;;;;;;5057285;28;20131;-45
2023/04/03 02:27:36;;;;;;;3.13;1.48;;;0.30;99.90;;;;;;5039519;28;20083;-40
2023/04/03 02:30:03;;;;;;;5.05;1.88;;;0.30;99.90;;;;;;5077346;28;20428;-38
2023/04/03 02:32:29;;;;;;;2.28;1.40;;;0.30;99.90;;;;;;5051188;28;20576;-42
2023/04/03 02:34:55;;;;;;;1.92;1.30;;;0.30;99.90;;;;;;5064730;28;20048;-44
2023/04/03 02:37:21;;;;;;;3.83;1.50;;;0.30;99.90;;;;;;5059371;28;20051;-39
2023/04/03 02:39:46;;;;;;;4.35;1.70;;;0.20;99.90;;;;;;5072227;28;20490;-37
2023/04/03 02:42:12;;;;;;;3.92;1.20;;;0.20;99.90;;;;;;5038804;28;20122;-42
2023/04/03 02:44:38;;;;;;;3.63;1.63;;;0.20;99.90;;;;;;5063609;28;20496;-37
2023/04/03 02:47:05;;;;;;;3.97;1.60;;;0.20;99.90;;;;;;5071873;28;20368;-42
2023/04/03 02:49:31;;;;;;;4.55;1.50;;;0.20;99.90;;;;;;5076942;28;20215;-39
2023/04/03 02:51:57;;;;;;;3.10;1.45;;;0.20;99.90;;;;;;5077805;28;20047;-35
2023/04/03 02:54:24;;;;;;;5.78;1.58;;;0.10;99.90;;;;;;5063652;28;20085;-44
2023/04/03 02:56:50;;;;;;;4.40;2.00;;;0.10;99.90;;;;;;5077142;28;20083;-37
2023/04/03 02:59:15;;;;;;;4.35;1.40;;;0.00;99.90;;;;;;5058975;28;20060;-44
2023/04/03 03:01:41;;;;;;;4.30;1.42;;;0.00;99.90;;;;;;5077231;28;20418;-43
2023/04/03 03:04:07;;;;;;;4.05;1.50;;;0.00;99.90;;;;;;5063977;28;20048;-36
2023/04/03 03:06:32;;;;;;;3.65;1.92;;;0.00;99.90;;;;;;5076953;28;20074;-40
2023/04/03 03:08:58;;;;;;;6.22;1.70;;;0.00;99.90;;;;;;5075696;28;20091;-41
2023/04/03 03:11:24;;;;;;;5.22;1.55;;;0.00;99.90;;;;;;5057632;28;20053;-42
2023/04/03 03:13:50;;;;;;;3.72;1.70;;;-0.10;99.90;;;;;;5058095;28;20117;-39
2023/04/03 03:16:16;;;;;;;4.07;1.20;;;-0.10;99.90;;;;;;5077213;28;20044;-41
2023/04/03 03:18:42;;;;;;;4.90;2.45;;;-0.10;99.90;;;;;;5077858;28;20052;-37
2023/04/03 03:21:09;;;;;;;5.28;1.85;;;-0.10;99.90;;;;;;5077022;28;20048;-44
2023/04/03 03:23:35;;;;;;;3.97;1.70;;;-0.20;99.90;;;;;;5063265;28;20150;-37
2023/04/03 03:26:04;;;;;;;3.65;1.77;;;-0.20;99.90;;;;;;5075494;28;20054;-45
2023/04/03 03:28:30;;;;;;;4.85;1.60;;;-0.20;99.90;;;;;;5043130;28;20590;-43
2023/04/03 03:30:57;;;;;;;4.20;1.80;;;-0.20;99.90;;;;;;5068947;28;20646;-40
2023/04/03 03:33:23;;;;;;;7.45;2.63;;;-0.30;99.90;;;;;;5063791;28;20052;-37
2023/04/03 03:35:48;;;;;;;5.53;1.80;;;-0.20;99.90;;;;;;5062039;28;20044;-44
2023/04/03 03:38:14;;;;;;;4.28;1.77;;;-0.30;99.90;;;;;;5076210;28;20204;-41
2023/04/03 03:40:40;;;;;;;4.95;1.88;;;-0.30;99.90;;;;;;5062269;28;20134;-47
2023/04/03 03:43:05;;;;;;;5.63;2.15;;;-0.30;99.90;;;;;;5056315;28;20139;-39
2023/04/03 03:45:31;;;;;;;3.90;1.83;;;-0.30;99.90;;;;;;5056320;28;20096;-40
2023/04/03 03:47:57;;;;;;;8.20;3.13;;;-0.30;99.90;;;;;;5055733;28;20394;-41
2023/04/03 03:50:23;;;;;;;4.15;1.75;;;-0.40;99.90;;;;;;5056562;28;20041;-42
2023/04/03 03:52:48;;;;;;;4.85;1.90;;;-0.40;99.90;;;;;;5055336;28;20063;-38
2023/04/03 03:55:14;;;;;;;5.68;2.20;;;-0.40;99.90;;;;;;5055981;28;20482;-37
2023/04/03 03:57:40;;;;;;;6.90;2.08;;;-0.40;99.90;;;;;;5055237;28;20127;-46
2023/04/03 04:00:07;;;;;;;4.22;2.08;;;-0.40;99.90;;;;;;5056410;28;20051;-41
2023/04/03 04:02:32;;;;;;;6.32;2.47;;;-0.40;99.90;;;;;;5047908;28;20045;-39
2023/04/03 04:04:58;;;;;;;8.20;2.10;;;-0.40;99.90;;;;;;5054796;28;20040;-42
2023/04/03 04:07:24;;;;;;;4.63;2.13;;;-0.40;99.90;;;;;;5053907;28;20091;-41
2023/04/03 04:09:49;;;;;;;6.47;2.38;;;-0.50;99.90;;;;;;5055621;28;20486;-43
2023/04/03 04:12:15;;;;;;;3.35;1.75;;;-0.50;99.90;;;;;;5054652;28;20132;-39
2023/04/03 04:14:41;;;;;;;8.10;2.22;;;-0.50;99.90;;;;;;5055589;28;20052;-47
2023/04/03 04:17:07;;;;;;;6.65;2.55;;;-0.50;99.90;;;;;;5036609;28;20404;-40
2023/04/03 04:19:33;;;;;;;6.13;1.90;;;-0.50;99.90;;;;;;5054585;28;20071;-39
2023/04/03 04:21:58;;;;;;;6.32;2.28;;;-0.60;99.90;;;;;;5054329;28;20464;-41
2023/04/03 04:24:24;;;;;;;6.72;2.05;;;-0.60;99.90;;;;;;5054965;28;20691;-40
2023/04/03 04:26:50;;;;;;;4.07;1.92;;;-0.60;99.90;;;;;;5053651;28;20044;-41
2023/04/03 04:29:16;;;;;;;3.03;1.73;;;-0.70;99.90;;;;;;5055198;28;20048;-42
2023/04/03 04:31:41;;;;;;;3.85;1.83;;;-0.70;99.90;;;;;;5053561;28;20198;-41
2023/04/03 04:34:07;;;;;;;6.28;2.58;;;-0.70;99.90;;;;;;5055261;28;20201;-47
2023/04/03 04:36:32;;;;;;;4.70;2.30;;;-0.70;99.90;;;;;;5053060;28;20044;-41
2023/04/03 04:38:58;;;;;;;8.70;2.47;;;-0.70;99.90;;;;;;5054401;28;20824;-37
2023/04/03 04:41:24;;;;;;;8.00;2.13;;;-0.70;99.90;;;;;;5053665;28;20449;-40
2023/04/03 04:43:51;;;;;;;4.53;2.28;;;-0.80;99.90;;;;;;5036618;28;20672;-42
2023/04/03 04:46:17;;;;;;;5.55;2.63;;;-0.80;99.90;;;;;;5054290;28;20360;-37
2023/04/03 04:48:42;;;;;;;7.70;2.78;;;-0.80;99.90;;;;;;5054795;28;20060;-36
2023/04/03 04:51:08;;;;;;;5.18;2.00;;;-0.80;99.90;;;;;;5054801;28;20052;-37
2023/04/03 04:53:34;;;;;;;5.60;2.35;;;-0.80;99.90;;;;;;5020371;28;20123;-42
2023/04/03 04:56:00;;;;;;;6.85;2.17;;;-0.80;99.90;;;;;;5054344;28;20047;-42
2023/04/03 04:58:26;;;;;;;4.15;2.33;;;-0.80;99.90;;;;;;5054213;28;20059;-38
2023/04/03 05:01:05;;;;;;;4.57;2.30;;;-0.90;99.90;;;;;;5037854;28;20473;-40
2023/04/03 05:03:31;;;;;;;4.97;2.90;;;-0.90;99.90;;;;;;5074429;28;20101;-44
2023/04/03 05:05:57;;;;;;;8.50;3.00;;;-0.90;99.90;;;;;;5074288;28;20544;-36
2023/04/03 05:08:23;;;;;;;7.10;2.80;;;-0.90;99.90;;;;;;5074634;28;20418;-42
2023/04/03 05:10:49;;;;;;;5.60;2.45;;;-1.00;99.90;;;;;;5073982;28;20055;-43
2023/04/03 05:13:15;;;;;;;4.60;2.50;;;-0.90;99.90;;;;;;5074497;28;20040;-39
2023/04/03 05:15:40;;;;;;;8.80;2.80;;;-1.00;99.90;;;;;;5074149;28;20217;-46
2023/04/03 05:18:06;;;;;;;6.30;2.75;;;-0.90;99.90;;;;;;5074930;28;20083;-41
2023/04/03 05:20:33;;;;;;;7.88;2.55;;;-0.90;99.90;;;;;;5074180;28;20474;-37
2023/04/03 05:22:59;;;;;;;8.13;2.83;;;-0.80;99.90;;;;;;5056006;28;20165;-38
2023/04/03 05:25:25;;;;;;;6.78;2.80;;;-0.60;99.90;;;;;;5074740;28;20483;-40
2023/04/03 05:27:50;;;;;;;7.25;3.45;;;-0.40;99.90;;;;;;5039379;28;20105;-36
2023/04/03 05:30:16;;;;;;;7.65;2.88;;;0.00;99.90;;;;;;5054131;28;20052;-40
2023/04/03 05:32:42;;;;;;;3.95;2.92;;;0.50;99.90;;;;;;5051132;28;20048;-41
2023/04/03 05:35:08;;;;;;;4.65;2.30;;;1.30;99.90;;;;;;5054390;28;20431;-40
2023/04/03 05:37:34;;;;;;;7.35;2.92;;;2.30;99.90;;;;;;5035233;28;20503;-41
2023/04/03 05:40:00;;;;;;;4.68;2.53;;;3.00;99.90;;;;;;5054397;28;20315;-41
2023/04/03 05:42:26;;;;;;;6.18;3.05;;;3.60;99.90;;;;;;5053836;28;20396;-38
2023/04/03 05:44:52;;;;;;;7.00;2.85;;;4.30;99.90;;;;;;5074215;28;20051;-36
2023/04/03 05:47:18;;;;;;;6.18;2.47;;;5.20;99.90;;;;;;5067068;28;20051;-47
2023/04/03 05:49:45;;;;;;;5.60;2.63;;;5.80;99.90;;;;;;5054138;28;20128;-40
2023/04/03 05:52:26;;;;;;;7.38;2.30;;;6.30;99.90;;;;;;5053482;28;20094;-46
2023/04/03 05:54:52;;;;;;;5.10;2.55;;;7.10;99.90;;;;;;5054538;28;20044;-43
2023/04/03 05:57:18;;;;;;;3.80;2.28;;;8.10;99.90;;;;;;5053326;28;20123;-47
2023/04/03 05:59:45;;;;;;;4.07;2.20;;;9.10;99.90;;;;;;5036929;28;20045;-40
2023/04/03 06:02:17;;;;;;;4.53;2.55;;;9.80;99.90;;;;;;5053749;28;20593;-44
2023/04/03 06:04:43;;;;;;;5.78;2.47;;;10.60;99.90;;;;;;5054231;28;20390;-42
2023/04/03 06:07:15;;;;;;;5.25;2.70;;;11.50;99.90;;;;;;5053707;28;20087;-42
2023/04/03 06:09:41;;;;;;;5.40;2.28;;;12.30;99.90;;;;;;5053940;28;20048;-45
2023/04/03 06:12:07;;;;;;;4.47;2.33;;;12.80;99.90;;;;;;5053602;28;20052;-40
2023/04/03 06:14:33;;;;;;;5.07;2.53;;;13.20;99.90;;;;;;5053784;28;20052;-44
2023/04/03 06:16:59;;;;;;;6.97;2.78;;;12.90;99.90;;;;;;5052822;28;20090;-40
2023/04/03 06:19:25;;;;;;;6.40;2.42;;;12.70;99.90;;;;;;5053638;28;20051;-46
2023/04/03 06:21:51;;;;;;;6.47;2.97;;;12.20;99.90;;;;;;5052707;28;20260;-43
2023/04/03 06:24:18;;;;;;;6.43;2.70;;;11.80;99.90;;;;;;5053579;28;20044;-39
2023/04/03 06:26:44;;;;;;;5.00;2.65;;;11.70;99.90;;;;;;5053120;28;20040;-46
2023/04/03 06:29:10;;;;;;;6.25;2.90;;;11.60;99.90;;;;;;5035572;28;20178;-53
2023/04/03 06:31:38;;;;;;;7.43;2.90;;;11.60;99.90;;;;;;5040083;28;20055;-43
2023/04/03 06:34:05;;;;;;;8.40;2.97;;;11.80;99.90;;;;;;5053818;28;20048;-43
2023/04/03 06:36:31;;;;;;;5.38;2.58;;;12.10;99.90;;;;;;5052953;28;20048;-47
2023/04/03 06:38:57;;;;;;;5.70;2.55;;;12.40;99.90;;;;;;5053542;28;20493;-40
2023/04/03 06:41:23;;;;;;;5.60;3.28;;;12.30;99.90;;;;;;5053134;28;20144;-43
2023/04/03 06:43:48;;;;;;;5.00;2.75;;;12.60;99.90;;;;;;5068977;28;20047;-49
2023/04/03 06:46:16;;;;;;;5.40;2.40;;;12.70;99.90;;;;;;5076688;28;20075;-49
2023/04/03 06:48:42;;;;;;;6.07;2.60;;;12.70;99.90;;;;;;5070513;28;20073;-46
2023/04/03 06:51:19;;;;;;;7.05;2.67;;;12.30;99.70;;;;;;5077705;28;20192;-46
2023/04/03 06:53:46;;;;;;;6.10;2.55;;;12.80;99.90;;;;;;5077731;28;20039;-43
2023/04/03 06:56:12;;;;;;;6.47;2.72;;;12.80;98.20;;;;;;5077553;28;20063;-44
2023/04/03 06:58:39;;;;;;;8.18;2.67;;;13.00;99.20;;;;;;5077809;28;20829;-41
2023/04/03 07:01:05;;;;;;;6.60;2.40;;;13.00;98.50;;;;;;5077311;28;20051;-43
2023/04/03 07:03:31;;;;;;;6.68;2.50;;;12.90;98.90;;;;;;5044656;28;20044;-52
2023/04/03 07:05:56;;;;;;;6.20;2.40;;;12.50;98.60;;;;;;5042035;28;20040;-40
2023/04/03 07:08:23;;;;;;;7.15;2.50;;;12.30;98.80;;;;;;5043558;28;20124;-43
2023/04/03 07:10:50;;;;;;;5.30;2.25;;;11.20;99.20;;;;;;5043555;28;20087;-40
2023/04/03 07:13:15;;;;;;;4.88;2.42;;;10.20;99.90;;;;;;5053808;28;20562;-38
2023/04/03 07:15:41;;;;;;;5.63;2.63;;;9.30;99.90;;;;;;5045408;28;20037;-43
2023/04/03 07:18:07;;;;;;;8.45;2.50;;;8.70;99.90;;;;;;5034128;28;20056;-45
2023/04/03 07:20:33;;;;;;;5.20;2.63;;;8.20;99.90;;;;;;5050543;28;20052;-48
2023/04/03 07:22:59;;;;;;;4.60;2.72;;;8.10;99.90;;;;;;5049639;28;20554;-37
2023/04/03 07:25:25;;;;;;;7.72;2.67;;;7.80;99.90;;;;;;5046794;28;20052;-48
2023/04/03 07:27:51;;;;;;;4.15;2.30;;;7.70;99.90;;;;;;5048522;28;20435;-46
2023/04/03 07:30:16;;;;;;;7.88;3.13;;;7.50;99.90;;;;;;5047878;28;20060;-44
2023/04/03 07:32:42;;;;;;;7.13;2.60;;;7.20;99.90;;;;;;5049417;28;20151;-39
2023/04/03 07:35:08;;;;;;;9.25;2.17;;;7.20;99.90;;;;;;5054805;28;20483;-45
2023/04/03 07:37:33;;;;;;;7.00;2.42;;;7.00;99.90;;;;;;5055452;28;20040;-38
2023/04/03 07:39:59;;;;;;;5.53;2.22;;;6.90;99.90;;;;;;5055690;28;20505;-45
2023/04/03 07:42:28;;;;;;;5.20;2.15;;;6.90;99.90;;;;;;5037960;28;20437;-43
2023/04/03 07:44:54;;;;;;;7.70;2.58;;;6.70;99.90;;;;;;5077630;28;20075;-42
2023/04/03 07:47:20;;;;;;;5.35;2.15;;;6.60;99.90;;;;;;5068389;28;20163;-45
2023/04/03 07:49:46;;;;;;;6.43;2.40;;;6.60;99.90;;;;;;5056489;28;20521;-44
2023/04/03 07:52:14;;;;;;;5.22;2.03;;;6.50;99.90;;;;;;5070630;28;20056;-38
2023/04/03 07:54:40;;;;;;;4.65;2.08;;;6.40;99.90;;;;;;5076223;28;20044;-47
2023/04/03 07:57:06;;;;;;;5.95;2.85;;;6.40;99.90;;;;;;5076026;28;20097;-45
2023/04/03 07:59:32;;;;;;;6.57;1.95;;;6.40;99.90;;;;;;5076051;28;20419;-43
2023/04/03 08:01:58;;;;;;;4.57;1.90;;;6.40;99.90;;;;;;5075579;28;20063;-44
2023/04/03 08:04:23;;;;;;;3.80;2.00;;;6.40;99.90;;;;;;5033811;28;20060;-41
2023/04/03 08:06:49;;;;;;;5.63;2.17;;;6.40;99.90;;;;;;5032685;28;20045;-41
2023/04/03 08:09:15;;;;;;;3.40;2.00;;;6.40;99.90;;;;;;5047189;28;20313;-47
2023/04/03 08:11:41;;;;;;;8.27;2.05;;;6.40;99.90;;;;;;5041027;28;20056;-44
2023/04/03 08:14:07;;;;;;;10.38;2.63;;;6.50;99.90;;;;;;5035895;28;20081;-42
2023/04/03 08:16:33;;;;;;;4.45;1.90;;;6.50;99.90;;;;;;5042326;28;20217;-42
2023/04/03 08:18:59;;;;;;;3.92;1.70;;;6.50;99.90;;;;;;5041885;28;20051;-38
2023/04/03 08:21:25;;;;;;;13.73;2.15;;;6.50;99.90;;;;;;5055466;28;20130;-42
2023/04/03 08:23:51;;;;;;;5.90;1.75;;;6.30;99.90;;;;;;5047774;28;20403;-41
2023/04/03 08:26:20;;;;;;;4.72;2.00;;;6.30;99.90;;;;;;5036233;28;20057;-45
2023/04/03 08:28:46;;;;;;;6.57;1.83;;;6.30;99.90;;;;;;5038051;28;20048;-37
2023/04/03 08:31:15;;;;;;;4.18;1.65;;;6.40;99.90;;;;;;5051587;28;20534;-49
2023/04/03 08:33:41;;;;;;;2.78;1.80;;;6.40;99.90;;;;;;5047636;28;20469;-42
2023/04/03 08:36:16;;;;;;;5.63;1.92;;;6.50;99.90;;;;;;5035654;28;20080;-46
2023/04/03 08:38:42;;;;;;;4.28;1.58;;;6.50;99.90;;;;;;5038033;28;20415;-45
2023/04/03 08:41:18;;;;;;;5.07;1.95;;;6.50;99.90;;;;;;5041550;28;20072;-44
2023/04/03 08:44:24;;;;;;;4.32;1.85;;;6.40;99.90;;;;;;5039821;28;20048;-43
2023/04/03 08:46:59;;;;;;;4.30;1.70;;;6.50;99.90;;;;;;5039376;28;20093;-44
2023/04/03 08:49:47;;;;;;;3.03;1.63;;;6.60;99.90;;;;;;5050868;28;20064;-40
2023/04/03 08:52:20;;;;;;;4.63;1.50;;;6.60;99.90;;;;;;5037559;28;20052;-40
2023/04/03 08:54:50;;;;;;;2.90;1.10;;;6.80;99.90;;;;;;5037995;28;20056;-37
2023/04/03 08:57:24;;;;;;;4.65;1.35;;;6.90;99.90;;;;;;5048568;28;21020;-39
2023/04/03 08:59:50;;;;;;;3.15;1.42;;;6.90;99.90;;;;;;5051403;28;20062;-41
2023/04/03 09:02:30;;;;;;;4.93;1.60;;;7.00;99.90;;;;;;5054408;28;20434;-41
2023/04/03 09:04:57;;;;;;;3.50;1.20;;;7.20;99.90;;;;;;5054858;28;20052;-46
2023/04/03 09:07:38;;;;;;;2.92;1.42;;;7.20;99.90;;;;;;5053006;28;20056;-44
2023/04/03 09:10:05;;;;;;;5.13;1.65;;;7.10;99.90;;;;;;5068098;28;20210;-36
2023/04/03 09:12:45;;;;;;;2.85;1.05;;;7.00;99.90;;;;;;5074508;28;20047;-43
2023/04/03 09:15:16;;;;;;;3.22;1.30;;;7.00;99.90;;;;;;5034231;28;20063;-48
2023/04/03 09:18:02;;;;;;;3.10;1.27;;;7.00;99.60;;;;;;5053723;28;20056;-47
2023/04/03 09:20:55;;;;;;;3.75;1.15;;;7.00;99.80;;;;;;5053160;28;20852;-46
2023/04/03 09:23:43;;;;;;;2.30;1.10;;;7.10;99.10;;;;;;5053713;28;20128;-45
2023/04/03 09:26:30;;;;;;;2.83;1.05;;;7.20;99.80;;;;;;5051849;28;20048;-43
2023/04/03 09:29:00;;;;;;;3.58;1.52;;;7.30;99.90;;;;;;5051242;28;20079;-40
2023/04/03 09:31:46;;;;;;;3.85;1.58;;;7.40;99.90;;;;;;5049666;28;20851;-46
2023/04/03 09:34:20;;;;;;;2.47;1.42;;;7.60;99.60;;;;;;5045155;28;20163;-46
2023/04/03 09:36:51;;;;;;;2.60;1.30;;;7.70;99.90;;;;;;5032847;28;20049;-39
2023/04/03 09:39:19;;;;;;;4.93;1.55;;;7.80;98.90;;;;;;5037778;28;20144;-40
2023/04/03 09:41:55;;;;;;;4.45;1.42;;;7.70;99.60;;;;;;5048410;28;20051;-41
2023/04/03 09:44:28;;;;;;;4.60;1.20;;;7.80;99.70;;;;;;5048979;28;20049;-40
2023/04/03 09:46:53;;;;;;;2.92;1.27;;;7.80;99.50;;;;;;5055349;28;20062;-38
2023/04/03 09:49:21;;;;;;;4.15;1.33;;;7.70;99.50;;;;;;5059685;28;20047;-43
2023/04/03 09:51:47;;;;;;;3.85;1.20;;;7.70;98.60;;;;;;5060035;28;20574;-43
2023/04/03 09:54:31;;;;;;;1.98;1.15;;;7.80;99.00;;;;;;5056571;28;20063;-41
2023/04/03 09:57:01;;;;;;;3.17;1.20;;;7.80;98.30;;;;;;5053638;28;20121;-44
2023/04/03 09:59:27;;;;;;;3.60;1.20;;;7.90;98.90;;;;;;5054239;28;20049;-46
2023/04/03 10:02:27;;;;;;;2.65;1.17;;;8.00;98.30;;;;;;5052020;28;20450;-42
2023/04/03 10:04:52;;;;;;;2.65;1.20;;;8.10;98.80;;;;;;5043476;28;20048;-44
2023/04/03 10:07:29;;;;;;;2.38;1.08;;;8.00;98.10;;;;;;5057920;28;20044;-48
2023/04/03 10:09:57;;;;;;;2.67;1.42;;;7.90;98.00;;;;;;5034327;28;20380;-43
2023/04/03 10:12:22;;;;;;;2.22;1.02;;;7.90;98.80;;;;;;5051888;28;20055;-43
2023/04/03 10:14:55;;;;;;;3.92;1.42;;;7.90;98.00;;;;;;5052099;28;20490;-49
2023/04/03 10:17:22;;;;;;;2.70;1.25;;;8.00;97.20;;;;;;5046613;28;20578;-37
2023/04/03 10:20:21;;;;;;;4.85;1.20;;;8.30;99.30;;;;;;5058409;28;20056;-49
2023/04/03 10:23:26;;;;;;;3.35;1.30;;;8.40;98.30;;;;;;5055052;28;20068;-44
2023/04/03 10:26:07;;;;;;;3.97;1.45;;;8.70;99.30;;;;;;5052768;28;20584;-48
2023/04/03 10:28:55;;;;;;;2.28;1.10;;;8.90;98.00;;;;;;5057615;28;20048;-43
2023/04/03 10:31:43;;;;;;;2.65;1.00;;;8.90;97.10;;;;;;5043922;28;20052;-44
2023/04/03 10:34:37;;;;;;;2.97;1.10;;;8.90;97.60;;;;;;5053692;28;20044;-42
2023/04/03 10:37:28;;;;;;;3.22;1.15;;;8.80;97.00;;;;;;5046194;28;20049;-41
2023/04/03 10:39:59;;;;;;;3.90;1.10;;;8.70;97.20;;;;;;5057172;28;20494;-38
2023/04/03 10:42:39;;;;;;;3.20;1.05;;;8.60;96.70;;;;;;5057231;28;20054;-39
2023/04/03 10:45:19;;;;;;;2.15;1.10;;;8.50;97.60;;;;;;5048573;28;20399;-45
2023/04/03 10:48:06;;;;;;;2.55;0.90;;;8.40;96.90;;;;;;5046571;28;20073;-49
2023/04/03 10:50:47;;;;;;;2.00;0.85;;;8.30;96.30;;;;;;5056539;28;20094;-46
2023/04/03 10:53:38;;;;;;;4.85;1.10;;;8.20;96.60;;;;;;5056293;28;20045;-46
2023/04/03 10:56:15;;;;;;;3.40;0.90;;;8.30;97.40;;;;;;5055299;28;20051;-38
2023/04/03 10:58:54;;;;;;;3.38;0.90;;;8.30;97.90;;;;;;5056201;28;20041;-43
2023/04/03 11:01:31;;;;;;;2.88;0.75;;;8.40;97.30;;;;;;5037725;28;20064;-42
2023/04/03 11:03:59;;;;;;;3.33;0.85;;;8.50;96.20;;;;;;5056037;28;20040;-37
2023/04/03 11:06:32;;;;;;;2.47;1.00;;;8.50;95.70;;;;;;5055377;28;20908;-39
2023/04/03 11:09:07;;;;;;;1.73;0.77;;;8.40;94.90;;;;;;5058550;28;20070;-41
2023/04/03 11:11:39;;;;;;;3.45;0.88;;;8.30;95.60;;;;;;5056717;28;20039;-42
2023/04/03 11:14:34;;;;;;;2.97;0.90;;;8.30;95.60;;;;;;5027413;28;21293;-40
2023/04/03 11:17:18;;;;;;;2.17;1.00;;;8.40;97.00;;;;;;5053438;28;20070;-43
2023/04/03 11:20:06;;;;;;;3.40;1.20;;;8.50;96.80;;;;;;5055244;28;20044;-43
2023/04/03 11:22:42;;;;;;;1.60;0.73;;;8.60;96.10;;;;;;5055229;28;20145;-46
2023/04/03 11:25:11;;;;;;;2.85;1.30;;;8.60;95.00;;;;;;5059969;28;20044;-49
2023/04/03 11:28:01;;;;;;;2.42;0.73;;;8.40;95.00;;;;;;5052816;28;20139;-43
2023/04/03 11:31:13;;;;;;;2.30;0.80;;;8.40;95.20;;;;;;5043209;28;20045;-43
2023/04/03 11:34:07;;;;;;;3.13;0.75;;;8.30;94.10;;;;;;4943909;28;20063;-40
2023/04/03 11:36:44;;;;;;;1.13;0.60;;;8.30;95.10;;;;;;4951592;28;20061;-44
2023/04/03 11:39:31;;;;;;;2.05;0.70;;;8.20;94.00;;;;;;4961176;28;20070;-51
2023/04/03 11:42:23;;;;;;;3.15;0.90;;;8.20;94.20;;;;;;4974298;28;20058;-46
2023/04/03 11:44:49;;;;;;;2.55;0.80;;;8.20;95.60;;;;;;4967130;28;20576;-44
2023/04/03 11:47:48;;;;;;;1.60;0.90;;;8.30;94.10;;;;;;4961200;28;20066;-44
2023/04/03 11:50:42;;;;;;;2.22;0.82;;;8.50;94.30;;;;;;4955476;28;20065;-47
2023/04/03 11:53:08;;;;;;;1.90;0.95;;;8.50;94.40;;;;;;4952268;28;20464;-51
2023/04/03 11:55:35;;;;;;;2.08;0.88;;;8.60;94.80;;;;;;4955855;28;20073;-41
2023/04/03 11:58:01;;;;;;;1.92;0.98;;;8.70;95.00;;;;;;4950506;28;20217;-39
2023/04/03 12:00:50;;;;;;;1.98;0.90;;;8.70;95.30;;;;;;4957901;28;20047;-41
2023/04/03 12:05:52;;;;;;;5.07;1.75;;;9.00;95.70;;;;;;4955543;28;20054;-44
2023/04/03 12:08:49;;;;;;;3.95;1.15;;;9.10;96.20;;;;;;4961630;28;20059;-43
2023/04/03 12:11:28;;;;;;;3.17;1.42;;;9.10;95.40;;;;;;5044195;28;20160;-46
2023/04/03 12:13:54;;;;;;;2.70;1.00;;;9.10;95.00;;;;;;5074864;28;20043;-39
2023/04/03 12:16:30;;;;;;;1.75;0.80;;;9.10;94.90;;;;;;5046397;28;20048;-44
2023/04/03 12:19:03;;;;;;;2.97;1.15;;;9.00;94.50;;;;;;5055552;28;20048;-39
2023/04/03 12:21:29;;;;;;;2.00;0.88;;;8.90;94.80;;;;;;5058023;28;20055;-43
2023/04/03 12:23:56;;;;;;;2.88;1.10;;;8.90;95.10;;;;;;5037385;28;20074;-43
2023/04/03 12:26:30;;;;;;;2.85;1.08;;;8.90;95.30;;;;;;5037173;28;20546;-44
2023/04/03 12:28:57;;;;;;;2.95;1.20;;;9.00;94.90;;;;;;5052993;28;20040;-44
2023/04/03 12:31:31;;;;;;;3.20;1.30;;;9.00;94.60;;;;;;5051610;28;20062;-45
2023/04/03 12:33:59;;;;;;;4.05;0.93;;;9.00;94.80;;;;;;5044431;28;20102;-43
2023/04/03 12:36:51;;;;;;;2.72;1.10;;;9.10;94.60;;;;;;5053668;28;20042;-46
2023/04/03 12:39:25;;;;;;;4.45;1.30;;;9.00;94.90;;;;;;5068919;28;20044;-43
2023/04/03 12:42:04;;;;;;;3.58;1.33;;;8.90;93.60;;;;;;5066027;28;20044;-40
2023/04/03 12:44:40;;;;;;;3.50;1.20;;;8.90;94.30;;;;;;5054208;28;20053;-43
2023/04/03 12:47:37;;;;;;;3.30;1.10;;;8.90;95.70;;;;;;5055400;28;20060;-40
2023/04/03 12:50:15;;;;;;;3.88;1.20;;;9.00;95.10;;;;;;5055594;28;20133;-39
2023/04/03 12:52:52;;;;;;;4.20;1.58;;;9.10;96.00;;;;;;5054471;28;20495;-39
2023/04/03 12:55:20;;;;;;;3.10;1.33;;;9.20;96.00;;;;;;5054176;28;20700;-46
2023/04/03 12:57:46;;;;;;;2.78;1.10;;;9.20;96.00;;;;;;5055086;28;20095;-45
2023/04/03 13:00:33;;;;;;;3.08;1.30;;;9.10;95.60;;;;;;5055357;28;20123;-39
2023/04/03 13:03:01;;;;;;;3.22;1.25;;;9.10;95.00;;;;;;5026253;28;20330;-44
2023/04/03 13:05:28;;;;;;;4.35;1.88;;;9.00;95.40;;;;;;5054528;28;20052;-43
2023/04/03 13:08:08;;;;;;;2.63;1.45;;;9.00;96.10;;;;;;5036814;28;20118;-38
2023/04/03 13:10:52;;;;;;;3.85;1.60;;;9.00;95.60;;;;;;5054958;28;20080;-37
2023/04/03 13:13:18;;;;;;;3.83;1.77;;;9.00;95.70;;;;;;5067122;28;20449;-51